createdAt,value
2018-12-04T00:01:58.776Z,261.70
2018-12-04T00:04:27.639Z,267.43
2018-12-04T00:06:55.515Z,251.75
2018-12-04T00:09:23.436Z,254.20
2018-12-04T00:11:52.129Z,263.50
2018-12-04T00:14:19.989Z,356.15
2018-12-04T00:16:47.867Z,338.23
2018-12-04T00:19:15.795Z,301.60
2018-12-04T00:21:44.334Z,253.88
2018-12-04T00:24:12.585Z,266.60
2018-12-04T00:26:40.491Z,295.85
2018-12-04T00:29:09.136Z,242.72
2018-12-04T00:31:37.047Z,241.82
2018-12-04T00:34:04.941Z,236.52
2018-12-04T00:36:32.791Z,227.95
2018-12-04T00:39:01.738Z,221.18
2018-12-04T00:41:29.969Z,228.73
2018-12-04T00:43:57.816Z,212.15
2018-12-04T00:46:26.081Z,204.20
2018-12-04T00:48:54.048Z,216.93
2018-12-04T00:51:21.975Z,255.65
2018-12-04T00:53:49.856Z,230.75
2018-12-04T00:56:17.758Z,213.05
2018-12-04T00:58:46.917Z,218.33
2018-12-04T01:01:14.801Z,278.92
2018-12-04T01:03:43.094Z,238.82
2018-12-04T01:06:12.984Z,231.17
2018-12-04T01:08:41.174Z,238.57
2018-12-04T01:11:09.047Z,239.12
2018-12-04T01:13:37.483Z,232.05
2018-12-04T01:16:05.610Z,245.27
2018-12-04T01:18:33.500Z,201.12
2018-12-04T01:21:01.854Z,205.00
2018-12-04T01:23:29.712Z,196.65
2018-12-04T01:25:57.579Z,200.07
2018-12-04T01:28:26.591Z,187.18
2018-12-04T01:30:54.843Z,180.07
2018-12-04T01:33:22.700Z,171.90
2018-12-04T01:35:50.595Z,189.67
2018-12-04T01:38:19.287Z,181.45
2018-12-04T01:40:47.185Z,172.82
2018-12-04T01:43:15.035Z,201.55
2018-12-04T01:45:44.074Z,180.22
2018-12-04T01:48:11.953Z,195.90
2018-12-04T01:50:40.686Z,180.37
2018-12-04T01:53:08.551Z,181.30
2018-12-04T01:55:36.431Z,186.28
2018-12-04T01:58:04.299Z,178.38
2018-12-04T02:00:32.759Z,187.68
2018-12-04T02:03:00.600Z,189.97
2018-12-04T02:05:29.098Z,177.87
2018-12-04T02:07:57.542Z,182.95
2018-12-04T02:10:25.470Z,181.82
2018-12-04T02:12:53.316Z,193.55
2018-12-04T02:15:21.344Z,189.75
2018-12-04T02:17:50.266Z,208.43
2018-12-04T02:20:18.886Z,192.72
2018-12-04T02:22:46.856Z,200.25
2018-12-04T02:25:14.739Z,203.02
2018-12-04T02:27:42.594Z,217.87
2018-12-04T02:30:10.735Z,198.38
2018-12-04T02:32:38.576Z,218.07
2018-12-04T02:35:06.562Z,183.27
2018-12-04T02:37:35.086Z,198.28
2018-12-04T02:40:03.619Z,210.78
2018-12-04T02:42:32.903Z,186.57
2018-12-04T02:45:00.764Z,193.52
2018-12-04T02:47:28.920Z,186.45
2018-12-04T02:50:02.954Z,169.50
2018-12-04T02:52:31.195Z,175.45
2018-12-04T02:54:59.273Z,171.20
2018-12-04T02:57:27.215Z,168.78
2018-12-04T02:59:55.129Z,157.85
2018-12-04T03:02:24.293Z,172.87
2018-12-04T03:04:52.608Z,160.22
2018-12-04T03:07:20.538Z,172.62
2018-12-04T03:09:48.759Z,166.73
2018-12-04T03:12:16.684Z,167.95
2018-12-04T03:14:44.891Z,170.60
2018-12-04T03:17:12.759Z,156.10
2018-12-04T03:19:41.062Z,165.18
2018-12-04T03:22:08.948Z,153.20
2018-12-04T03:24:37.981Z,149.27
2018-12-04T03:27:05.881Z,134.70
2018-12-04T03:29:34.155Z,150.60
2018-12-04T03:32:02.060Z,162.57
2018-12-04T03:34:30.282Z,166.65
2018-12-04T03:36:58.452Z,154.80
2018-12-04T03:39:27.711Z,153.78
2018-12-04T03:41:55.579Z,150.10
2018-12-04T03:44:24.099Z,145.90
2018-12-04T03:46:52.077Z,172.60
2018-12-04T03:49:19.941Z,153.78
2018-12-04T03:51:47.864Z,151.78
2018-12-04T03:54:15.943Z,149.80
2018-12-04T03:56:43.943Z,151.22
2018-12-04T03:59:13.042Z,155.35
2018-12-04T04:01:40.959Z,159.78
2018-12-04T04:04:08.849Z,161.45
2018-12-04T04:06:38.300Z,142.75
2018-12-04T04:09:07.796Z,153.18
2018-12-04T04:11:35.786Z,153.68
2018-12-04T04:14:03.658Z,169.70
2018-12-04T04:16:31.530Z,158.70
2018-12-04T04:18:59.635Z,153.20
2018-12-04T04:21:27.569Z,151.12
2018-12-04T04:23:55.419Z,157.40
2018-12-04T04:26:23.672Z,168.15
2018-12-04T04:28:52.560Z,166.90
2018-12-04T04:31:20.443Z,149.85
2018-12-04T04:33:48.366Z,167.45
2018-12-04T04:36:20.843Z,166.77
2018-12-04T04:38:50.726Z,165.73
2018-12-04T04:41:18.600Z,154.82
2018-12-04T04:43:46.904Z,166.45
2018-12-04T04:46:14.804Z,169.22
2018-12-04T04:48:45.966Z,153.15
2018-12-04T04:51:13.936Z,173.82
2018-12-04T04:53:41.874Z,163.12
2018-12-04T04:56:09.800Z,162.27
2018-12-04T04:58:37.661Z,158.50
2018-12-04T05:01:05.676Z,165.05
2018-12-04T05:03:34.092Z,158.10
2018-12-04T05:06:02.241Z,176.10
2018-12-04T05:08:33.372Z,152.32
2018-12-04T05:11:02.206Z,161.85
2018-12-04T05:13:30.338Z,168.93
2018-12-04T05:15:58.217Z,170.05
2018-12-04T05:18:28.104Z,159.87
2018-12-04T05:20:56.410Z,158.50
2018-12-04T05:23:24.279Z,151.87
2018-12-04T05:25:53.153Z,156.05
2018-12-04T05:28:21.868Z,160.22
2018-12-04T05:30:49.759Z,148.05
2018-12-04T05:33:17.784Z,154.03
2018-12-04T05:35:45.721Z,145.22
2018-12-04T05:38:13.901Z,150.70
2018-12-04T05:40:41.779Z,162.62
2018-12-04T05:43:09.640Z,161.32
2018-12-04T05:45:37.941Z,137.20
2018-12-04T05:48:06.227Z,147.05
2018-12-04T05:50:34.127Z,144.47
2018-12-04T05:53:13.184Z,150.20
2018-12-04T05:55:41.672Z,128.70
2018-12-04T05:58:09.579Z,138.55
2018-12-04T06:00:37.500Z,143.20
2018-12-04T06:03:05.707Z,144.15
2018-12-04T06:05:33.968Z,143.02
2018-12-04T06:08:01.860Z,149.62
2018-12-04T06:10:30.112Z,136.40
2018-12-04T06:12:57.980Z,145.90
2018-12-04T06:15:26.325Z,146.05
2018-12-04T06:17:54.935Z,133.50
2018-12-04T06:20:24.195Z,135.25
2018-12-04T06:22:52.083Z,138.05
2018-12-04T06:25:19.985Z,147.28
2018-12-04T06:27:47.853Z,138.72
2018-12-04T06:30:16.307Z,149.15
2018-12-04T06:32:44.579Z,143.37
2018-12-04T06:35:12.892Z,131.97
2018-12-04T06:37:41.135Z,143.13
2018-12-04T06:40:09.071Z,148.72
2018-12-04T06:42:38.103Z,148.85
2018-12-04T06:45:06.049Z,153.57
2018-12-04T06:47:34.504Z,149.65
2018-12-04T06:50:03.305Z,151.70
2018-12-04T06:52:31.206Z,150.65
2018-12-04T06:54:59.104Z,147.53
2018-12-04T06:57:27.402Z,154.93
2018-12-04T06:59:55.253Z,157.43
2018-12-04T07:02:23.138Z,151.80
2018-12-04T07:04:51.040Z,142.00
2018-12-04T07:07:19.382Z,141.22
2018-12-04T07:09:47.515Z,141.88
2018-12-04T07:12:15.801Z,148.28
2018-12-04T07:14:43.705Z,152.40
2018-12-04T07:17:11.647Z,154.78
2018-12-04T07:19:39.812Z,150.60
2018-12-04T07:22:07.728Z,154.15
2018-12-04T07:24:35.920Z,142.22
2018-12-04T07:27:03.876Z,153.87
2018-12-04T07:29:33.295Z,153.78
2018-12-04T07:32:01.216Z,159.95
2018-12-04T07:34:29.219Z,140.03
2018-12-04T07:36:57.305Z,173.10
2018-12-04T07:39:26.574Z,153.20
2018-12-04T07:41:55.495Z,164.90
2018-12-04T07:44:24.898Z,156.87
2018-12-04T07:46:53.539Z,152.00
2018-12-04T07:49:21.556Z,155.35
2018-12-04T07:51:50.360Z,152.60
2018-12-04T07:54:18.687Z,166.75
2018-12-04T07:56:52.736Z,169.85
2018-12-04T07:59:20.667Z,155.30
2018-12-04T08:01:48.543Z,146.77
2018-12-04T08:04:16.432Z,179.50
2018-12-04T08:06:44.332Z,179.25
2018-12-04T08:09:12.236Z,158.57
2018-12-04T08:11:40.983Z,154.40
2018-12-04T08:14:12.727Z,177.40
2018-12-04T08:16:41.583Z,173.10
2018-12-04T08:19:09.517Z,171.65
2018-12-04T08:21:37.780Z,174.50
2018-12-04T08:24:05.688Z,180.95
2018-12-04T08:26:35.264Z,190.65
2018-12-04T08:29:03.524Z,239.50
2018-12-04T08:31:33.547Z,253.02
2018-12-04T08:34:01.460Z,194.45
2018-12-04T08:36:30.780Z,186.80
2018-12-04T08:38:58.668Z,196.02
2018-12-04T08:41:27.016Z,196.50
2018-12-04T08:43:55.131Z,180.85
2018-12-04T08:46:23.111Z,191.68
2018-12-04T08:48:51.681Z,213.85
2018-12-04T08:51:19.945Z,217.55
2018-12-04T08:53:47.815Z,210.20
2018-12-04T08:56:16.729Z,195.65
2018-12-04T08:58:44.597Z,202.97
2018-12-04T09:01:13.544Z,191.20
2018-12-04T09:03:41.407Z,193.40
2018-12-04T09:06:12.145Z,198.68
2018-12-04T09:08:40.966Z,193.37
2018-12-04T09:11:09.956Z,189.72
2018-12-04T09:13:38.188Z,202.62
2018-12-04T09:16:06.081Z,200.53
2018-12-04T09:18:33.958Z,200.13
2018-12-04T09:21:01.984Z,193.57
2018-12-04T09:23:31.331Z,178.05
2018-12-04T09:25:59.518Z,185.52
2018-12-04T09:28:27.421Z,190.85
2018-12-04T09:30:55.478Z,199.07
2018-12-04T09:33:23.535Z,220.33
2018-12-04T09:35:51.440Z,199.53
2018-12-04T09:38:21.922Z,214.02
2018-12-04T09:40:49.958Z,201.65
2018-12-04T09:43:18.439Z,183.45
2018-12-04T09:45:46.931Z,196.53
2018-12-04T09:48:14.791Z,185.30
2018-12-04T09:50:42.715Z,183.12
2018-12-04T09:53:12.647Z,183.57
2018-12-04T09:55:40.596Z,178.23
2018-12-04T09:58:09.615Z,172.15
2018-12-04T10:00:37.500Z,167.93
2018-12-04T10:03:07.015Z,173.45
2018-12-04T10:05:35.626Z,184.43
2018-12-04T10:08:03.494Z,171.28
2018-12-04T10:10:31.350Z,186.20
2018-12-04T10:12:59.592Z,181.35
2018-12-04T10:15:27.476Z,186.60
2018-12-04T10:17:56.380Z,176.20
2018-12-04T10:20:25.300Z,192.13
2018-12-04T10:22:53.176Z,187.97
2018-12-04T10:25:21.093Z,175.55
2018-12-04T10:27:49.555Z,159.10
2018-12-04T10:30:20.970Z,163.30
2018-12-04T10:32:51.491Z,170.45
2018-12-04T10:35:19.903Z,176.85
2018-12-04T10:37:49.048Z,179.32
2018-12-04T10:40:17.181Z,191.70
2018-12-04T10:42:45.087Z,196.35
2018-12-04T10:45:14.136Z,181.87
2018-12-04T10:47:42.313Z,166.20
2018-12-04T10:50:10.483Z,174.95
2018-12-04T10:52:38.582Z,184.85
2018-12-04T10:55:06.640Z,177.47
2018-12-04T10:57:34.552Z,187.68
2018-12-04T11:00:03.845Z,179.00
2018-12-04T11:02:36.533Z,177.50
2018-12-04T11:05:05.791Z,175.70
2018-12-04T11:07:33.704Z,174.55
2018-12-04T11:10:02.458Z,177.78
2018-12-04T11:12:30.315Z,177.12
2018-12-04T11:14:58.202Z,194.47
2018-12-04T11:17:26.455Z,187.60
2018-12-04T11:19:54.358Z,206.38
2018-12-04T11:22:25.118Z,202.25
2018-12-04T11:24:53.611Z,200.47
2018-12-04T11:27:22.996Z,197.40
2018-12-04T11:29:51.904Z,203.98
2018-12-04T11:32:20.708Z,192.62
2018-12-04T11:34:51.868Z,195.87
2018-12-04T11:37:21.439Z,207.15
2018-12-04T11:39:50.514Z,195.00
2018-12-04T11:42:21.261Z,193.25
2018-12-04T11:44:49.179Z,204.25
2018-12-04T11:47:19.712Z,200.60
2018-12-04T11:49:49.891Z,206.87
2018-12-04T11:52:18.908Z,202.62
2018-12-04T11:54:47.603Z,218.15
2018-12-04T11:57:17.492Z,213.10
2018-12-04T11:59:47.164Z,217.85
2018-12-04T12:02:15.405Z,210.23
2018-12-04T12:04:43.423Z,209.35
2018-12-04T12:07:20.387Z,216.30
2018-12-04T12:09:45.747Z,217.30
2018-12-04T12:12:16.072Z,238.28
2018-12-04T12:14:43.922Z,229.90
2018-12-04T12:17:12.176Z,229.25
2018-12-04T12:19:41.533Z,204.20
2018-12-04T12:22:09.485Z,218.90
2018-12-04T12:24:39.290Z,231.53
2018-12-04T12:27:08.478Z,222.60
2018-12-04T12:29:36.816Z,210.02
2018-12-04T12:32:05.643Z,221.62
2018-12-04T12:34:33.574Z,225.75
2018-12-04T12:37:01.804Z,212.60
2018-12-04T12:39:29.682Z,219.03
2018-12-04T12:41:57.589Z,215.05
2018-12-04T12:44:25.460Z,233.87
2018-12-04T12:46:53.659Z,222.20
2018-12-04T12:49:24.952Z,225.87
2018-12-04T12:51:52.852Z,232.75
2018-12-04T12:57:16.048Z,237.60
2018-12-04T12:59:44.442Z,252.65
2018-12-04T13:02:12.843Z,258.82
2018-12-04T13:04:41.146Z,260.05
2018-12-04T13:07:12.097Z,269.13
2018-12-04T13:09:40.023Z,261.57
2018-12-04T13:12:07.963Z,282.48
2018-12-04T13:14:37.089Z,274.12
2018-12-04T13:17:05.154Z,283.57
2018-12-04T13:19:34.015Z,267.40
2018-12-04T13:22:03.256Z,271.37
2018-12-04T13:24:32.346Z,250.78
2018-12-04T13:27:00.237Z,256.65
2018-12-04T13:29:29.013Z,263.25
2018-12-04T13:31:57.939Z,267.82
2018-12-04T13:34:26.800Z,271.37
2018-12-04T13:36:55.300Z,254.53
2018-12-04T13:39:23.523Z,256.52
2018-12-04T13:41:51.432Z,274.92
2018-12-04T13:44:20.480Z,248.70
2018-12-04T13:46:50.174Z,239.42
2018-12-04T13:49:18.661Z,254.75
2018-12-04T13:51:47.871Z,260.40
2018-12-04T13:54:15.772Z,281.47
2018-12-04T13:56:44.040Z,285.38
2018-12-04T13:59:12.540Z,274.00
2018-12-04T14:01:40.460Z,257.20
2018-12-04T14:04:09.338Z,261.45
2018-12-04T14:06:39.998Z,263.15
2018-12-04T14:09:09.371Z,260.80
2018-12-04T14:11:37.260Z,270.25
2018-12-04T14:14:05.626Z,295.20
2018-12-04T14:16:50.531Z,299.65
2018-12-04T14:19:18.621Z,282.70
2018-12-04T14:21:46.502Z,262.05
2018-12-04T14:24:14.516Z,274.52
2018-12-04T14:26:42.462Z,283.47
2018-12-04T14:29:11.642Z,279.55
2018-12-04T14:31:39.546Z,279.18
2018-12-04T14:34:07.735Z,281.45
2018-12-04T14:36:37.091Z,287.77
2018-12-04T14:39:09.631Z,296.85
2018-12-04T14:41:38.462Z,293.63
2018-12-04T14:44:11.401Z,279.57
2018-12-04T14:46:39.454Z,267.48
2018-12-04T14:49:07.365Z,265.77
2018-12-04T14:51:35.300Z,273.93
2018-12-04T14:54:03.292Z,275.85
2018-12-04T14:56:31.301Z,257.62
2018-12-04T14:58:59.195Z,270.52
2018-12-04T15:01:28.624Z,275.75
2018-12-04T15:03:56.932Z,263.73
2018-12-04T15:06:24.848Z,259.65
2018-12-04T15:08:53.784Z,276.65
2018-12-04T15:11:22.382Z,273.18
2018-12-04T15:13:51.193Z,265.27
2018-12-04T15:16:19.175Z,290.20
2018-12-04T15:18:47.689Z,301.07
2018-12-04T15:21:15.641Z,299.52
2018-12-04T15:23:43.572Z,289.68
2018-12-04T15:26:12.961Z,314.00
2018-12-04T15:28:40.930Z,312.85
2018-12-04T15:31:09.107Z,302.50
2018-12-04T15:33:36.982Z,314.60
2018-12-04T15:36:05.192Z,318.77
2018-12-04T15:38:33.184Z,304.68
2018-12-04T15:41:01.105Z,311.27
2018-12-04T15:43:29.268Z,312.57
2018-12-04T15:45:57.322Z,318.15
2018-12-04T15:48:25.363Z,330.25
2018-12-04T15:50:59.815Z,313.25
2018-12-04T15:53:26.009Z,312.30
2018-12-04T15:55:54.009Z,281.02
2018-12-04T15:58:21.876Z,272.93
2018-12-04T16:00:50.052Z,290.07
2018-12-04T16:03:17.947Z,284.50
2018-12-04T16:05:46.363Z,271.02
2018-12-04T16:08:14.807Z,267.23
2018-12-04T16:10:43.131Z,259.62
2018-12-04T16:13:11.940Z,262.25
2018-12-04T16:15:40.484Z,286.90
2018-12-04T16:18:08.986Z,278.90
2018-12-04T16:20:37.120Z,284.57
2018-12-04T16:23:05.016Z,277.68
2018-12-04T16:25:32.923Z,260.48
2018-12-04T16:28:00.782Z,269.75
2018-12-04T16:30:28.672Z,269.75
2018-12-04T16:32:56.834Z,277.45
2018-12-04T16:35:24.708Z,274.88
2018-12-04T16:37:53.421Z,267.60
2018-12-04T16:40:23.280Z,264.95
2018-12-04T16:42:51.165Z,260.93
2018-12-04T16:45:19.050Z,270.70
2018-12-04T16:47:47.299Z,298.93
2018-12-04T16:50:15.183Z,268.33
2018-12-04T16:52:43.036Z,267.50
2018-12-04T16:55:11.283Z,264.17
2018-12-04T16:57:39.584Z,278.05
2018-12-04T17:00:09.014Z,275.80
2018-12-04T17:02:38.283Z,266.55
2018-12-04T17:05:06.322Z,283.38
2018-12-04T17:07:34.168Z,264.23
2018-12-04T17:10:02.061Z,257.83
2018-12-04T17:12:31.035Z,252.32
2018-12-04T17:14:58.876Z,277.35
2018-12-04T17:17:26.748Z,260.27
2018-12-04T17:19:55.682Z,274.75
2018-12-04T17:22:23.600Z,289.70
2018-12-04T17:24:53.588Z,263.20
2018-12-04T17:27:22.279Z,266.05
2018-12-04T17:29:50.442Z,251.98
2018-12-04T17:32:18.338Z,257.90
2018-12-04T17:34:46.484Z,263.40
2018-12-04T17:37:15.694Z,268.73
2018-12-04T17:39:43.547Z,280.15
2018-12-04T17:42:11.876Z,290.92
2018-12-04T17:44:40.410Z,300.00
2018-12-04T17:47:10.176Z,292.27
2018-12-04T17:49:38.288Z,303.62
2018-12-04T17:52:06.179Z,313.90
2018-12-04T17:54:34.095Z,310.08
2018-12-04T17:57:01.992Z,314.40
2018-12-04T17:59:31.908Z,328.10
2018-12-04T18:01:59.803Z,308.30
2018-12-04T18:04:33.733Z,307.87
2018-12-04T18:07:04.520Z,315.92
2018-12-04T18:09:33.508Z,331.27
2018-12-04T18:12:03.503Z,338.27
2018-12-04T18:14:33.410Z,341.38
2018-12-04T18:17:01.272Z,367.60
2018-12-04T18:19:30.427Z,355.87
2018-12-04T18:21:59.760Z,345.12
2018-12-04T18:24:32.604Z,351.95
2018-12-04T18:27:00.489Z,369.07
2018-12-04T18:29:28.327Z,368.60
2018-12-04T18:31:56.224Z,362.35
2018-12-04T18:34:24.500Z,345.45
2018-12-04T18:36:52.424Z,343.30
2018-12-04T18:39:20.393Z,372.85
2018-12-04T18:41:48.468Z,350.48
2018-12-04T18:44:16.510Z,353.73
2018-12-04T18:46:44.668Z,371.48
2018-12-04T18:49:12.579Z,381.85
2018-12-04T18:51:41.729Z,387.50
2018-12-04T18:54:09.847Z,390.68
2018-12-04T18:56:37.710Z,409.10
2018-12-04T18:59:05.599Z,388.40
2018-12-04T19:01:33.927Z,405.65
2018-12-04T19:04:01.832Z,393.20
2018-12-04T19:06:31.021Z,411.30
2018-12-04T19:08:58.995Z,422.00
2018-12-04T19:11:26.865Z,433.15
2018-12-04T19:13:54.762Z,455.18
2018-12-04T19:16:22.641Z,432.43
2018-12-04T19:18:50.506Z,421.50
2018-12-04T19:21:21.623Z,426.87
2018-12-04T19:23:52.942Z,452.43
2018-12-04T19:26:20.839Z,425.87
2018-12-04T19:28:52.279Z,403.70
2018-12-04T19:31:20.167Z,410.95
2018-12-04T19:33:48.554Z,407.12
2018-12-04T19:36:16.699Z,401.85
2018-12-04T19:38:45.604Z,397.17
2018-12-04T19:41:13.472Z,382.37
2018-12-04T19:43:43.054Z,401.63
2018-12-04T19:46:29.107Z,386.70
2018-12-04T19:48:57.311Z,382.35
2018-12-04T19:51:26.413Z,368.17
2018-12-04T19:53:54.248Z,384.13
2018-12-04T19:56:22.156Z,377.77
2018-12-04T19:58:50.034Z,379.23
2018-12-04T20:01:17.902Z,388.75
2018-12-04T20:03:45.777Z,373.50
2018-12-04T20:06:16.093Z,356.17
2018-12-04T20:11:38.826Z,323.95
2018-12-04T20:14:07.322Z,317.77
2018-12-04T20:16:35.209Z,339.98
2018-12-04T20:19:03.142Z,338.32
2018-12-04T20:21:32.805Z,344.18
2018-12-04T20:24:03.093Z,352.93
2018-12-04T20:26:31.028Z,363.45
2018-12-04T20:29:01.276Z,358.05
2018-12-04T20:31:30.364Z,350.87
2018-12-04T20:33:58.363Z,363.95
2018-12-04T20:36:49.170Z,400.32
2018-12-04T20:39:19.554Z,400.35
2018-12-04T20:48:48.744Z,357.90
2018-12-04T20:51:16.990Z,369.20
2018-12-04T20:53:45.845Z,394.57
2018-12-04T20:56:13.949Z,374.95
2018-12-04T20:58:42.229Z,369.73
2018-12-04T21:01:10.771Z,355.92
2018-12-04T21:03:38.683Z,341.25
2018-12-04T21:06:06.757Z,347.27
2018-12-04T21:08:34.959Z,344.00
2018-12-04T21:11:03.438Z,367.80
2018-12-04T21:13:32.768Z,355.20
2018-12-04T21:16:01.051Z,370.67
2018-12-04T21:18:29.292Z,360.55
2018-12-04T21:20:57.543Z,376.35
2018-12-04T21:23:25.821Z,339.48
2018-12-04T21:25:54.100Z,351.80
2018-12-04T21:28:23.056Z,357.15
2018-12-04T21:30:57.731Z,374.70
2018-12-04T21:33:32.177Z,340.50
2018-12-04T21:36:05.832Z,406.25
2018-12-04T21:39:41.831Z,360.52
2018-12-04T21:42:15.670Z,328.65
2018-12-04T21:44:53.708Z,341.77
2018-12-04T21:47:27.169Z,341.65
2018-12-04T21:49:55.060Z,341.88
2018-12-04T21:52:23.340Z,339.10
2018-12-04T21:54:51.999Z,345.80
2018-12-04T21:57:20.307Z,339.32
2018-12-04T21:59:48.611Z,355.62
2018-12-04T22:02:17.257Z,353.40
2018-12-04T22:04:46.382Z,355.83
2018-12-04T22:07:18.820Z,351.23
2018-12-04T22:09:47.108Z,336.62
2018-12-04T22:12:15.310Z,352.38
2018-12-04T22:14:44.451Z,327.90
2018-12-04T22:17:12.706Z,327.68
2018-12-04T22:19:40.978Z,341.02
2018-12-04T22:22:11.281Z,328.67
2018-12-04T22:24:39.574Z,331.70
2018-12-04T22:27:08.009Z,336.70
2018-12-04T22:29:36.075Z,343.80
2018-12-04T22:32:05.759Z,342.00
2018-12-04T22:34:36.388Z,343.90
2018-12-04T22:37:06.309Z,338.25
2018-12-04T22:39:35.010Z,341.90
2018-12-04T22:42:03.215Z,342.10
2018-12-04T22:44:31.548Z,339.95
2018-12-04T22:47:00.702Z,342.30
2018-12-04T22:49:29.670Z,319.23
2018-12-04T22:51:57.982Z,336.90
2018-12-04T22:54:26.219Z,321.40
2018-12-04T22:56:54.947Z,314.50
2018-12-04T22:59:23.996Z,331.27
2018-12-04T23:01:52.289Z,317.00
2018-12-04T23:04:22.244Z,333.25
2018-12-04T23:06:52.522Z,339.95
2018-12-04T23:09:20.836Z,327.75
2018-12-04T23:11:50.035Z,315.48
2018-12-04T23:14:18.156Z,318.17
2018-12-04T23:16:51.609Z,329.20
2018-12-04T23:19:24.614Z,334.02
2018-12-04T23:21:53.668Z,325.90
2018-12-04T23:24:26.423Z,334.37
2018-12-04T23:26:55.531Z,308.15
2018-12-04T23:29:23.805Z,300.27
2018-12-04T23:31:53.374Z,318.02
2018-12-04T23:34:22.483Z,297.77
2018-12-04T23:36:50.748Z,298.93
2018-12-04T23:39:20.988Z,296.18
2018-12-04T23:41:53.027Z,299.37
2018-12-04T23:44:24.468Z,281.65
2018-12-04T23:46:54.416Z,285.13
2018-12-04T23:49:23.680Z,283.60
2018-12-04T23:51:51.781Z,255.90
2018-12-04T23:54:23.711Z,287.30
2018-12-04T23:56:52.848Z,277.57
2018-12-04T23:59:23.990Z,272.50
